Aérodrome :
LOGIN :

S'inscrire | Disclaimer

   EN    FR    IT 

 










Légende :    VFR   VFR Marginal   IFR   IFR Intensif   IFR Très Intensif
Visi : 
Plafond : 
>= 8 km
>= 3000ft
5 à 8 km
1000 à 3000 ft
1500m à 5 km
500 à 1000 ft
800 à 1500m
200 à 500 ft
< 800m
< 200 ft
Symboles :   Orages  Brouillard  Fortes neiges  Fortes précipitations  Vent > 20 kt
SIGMETs :   Divers  Orages  Givrage  Turbulence  Onde Orograph.  Cendres Volcan.







- Altitude de l'aérodrome : 23 ft
- Code IATA : XFW


EDHI - Hamburg Finkenwerder

DERNIER METAR :
  • 221050Z 29013KT 9999 BKN015 12/09 Q1016

METARs EXPIRÉS :
  • 221020Z 30015KT 9999 SCT013 BKN015 12/09 Q1016
  • 220950Z 29015KT 260V330 9999 FEW009 BKN012 12/09 Q1015
  • 220920Z 30015KT 9999 -RA BKN010 11/10 Q1015
  • 220850Z 30014KT 270V330 9999 BKN010 11/09 Q1015
  • 220820Z 29016KT 9999 BKN008 11/09 Q1014

TAF TAF EDHI
Valide du 22 à 09h jusqu'au 22 à 18h UTC


220800Z 2209/2218 29013G23KT 9999 BKN010
PROB30
TEMPO 2209/2210 BKN009
BECMG 2210/2212 BKN020
Pas de NOTAMs connus pour ce terrain.



MET'MAP, la Météo Aéronautique d'un coup d'oeil ! - Copyright ORBIFLY Décembre 2007 - Disclaimer

ORBIFLY MET'MAP TEAM :

Programmation & Développement : Alexandra Zaïnal
Conception & Développement : Baudouin d'Aumeries
Co-Programmation & Développement : Marc-Olivier Méhu
Soutien technique & logistique : Manuel Goepfert

Contact : metmap@orbifly.com




SOURCES & CREDITS :

   NOAA